createdAt,value
2019-03-25T00:00:00.841Z,1013.16
2019-03-25T00:01:00.836Z,1013.19
2019-03-25T00:02:00.828Z,1013.18
2019-03-25T00:03:00.818Z,1013.18
2019-03-25T00:04:01.065Z,1013.16
2019-03-25T00:05:00.801Z,1013.17
2019-03-25T00:06:01.068Z,1013.16
2019-03-25T00:07:00.785Z,1013.14
2019-03-25T00:08:00.778Z,1013.16
2019-03-25T00:09:05.194Z,1013.14
2019-03-25T00:10:00.750Z,1013.14
2019-03-25T00:11:00.746Z,1013.13
2019-03-25T00:12:00.737Z,1013.11
2019-03-25T00:13:00.729Z,1013.09
2019-03-25T00:14:00.720Z,1013.12
2019-03-25T00:15:00.707Z,1013.12
2019-03-25T00:16:00.698Z,1013.09
2019-03-25T00:17:00.692Z,1013.08
2019-03-25T00:18:00.682Z,1013.07
2019-03-25T00:19:00.673Z,1013.03
2019-03-25T00:20:00.668Z,1013.05
2019-03-25T00:21:00.653Z,1013.03
2019-03-25T00:22:00.644Z,1013.01
2019-03-25T00:23:00.637Z,1012.96
2019-03-25T00:24:00.633Z,1013.00
2019-03-25T00:25:00.617Z,1012.95
2019-03-25T00:26:00.615Z,1012.93
2019-03-25T00:27:00.607Z,1012.92
2019-03-25T00:28:00.590Z,1012.93
2019-03-25T00:29:00.581Z,1012.93
2019-03-25T00:30:00.579Z,1012.92
2019-03-25T00:31:00.584Z,1012.89
2019-03-25T00:32:00.579Z,1012.87
2019-03-25T00:33:00.570Z,1012.84
2019-03-25T00:34:00.540Z,1012.86
2019-03-25T00:35:00.528Z,1012.83
2019-03-25T00:36:00.521Z,1012.87
2019-03-25T00:37:00.510Z,1012.83
2019-03-25T00:38:00.506Z,1012.78
2019-03-25T00:39:00.570Z,1012.80
2019-03-25T00:40:00.483Z,1012.81
2019-03-25T00:41:00.476Z,1012.79
2019-03-25T00:42:00.466Z,1012.78
2019-03-25T00:43:00.458Z,1012.75
2019-03-25T00:44:00.450Z,1012.72
2019-03-25T00:45:00.472Z,1012.71
2019-03-25T00:46:00.431Z,1012.68
2019-03-25T00:47:00.421Z,1012.64
2019-03-25T00:48:00.414Z,1012.63
2019-03-25T00:49:00.588Z,1012.58
2019-03-25T00:50:00.472Z,1012.56
2019-03-25T00:51:00.387Z,1012.54
2019-03-25T00:52:00.564Z,1012.54
2019-03-25T00:53:00.374Z,1012.48
2019-03-25T00:54:00.362Z,1012.39
2019-03-25T00:55:00.349Z,1012.36
2019-03-25T00:56:00.338Z,1012.31
2019-03-25T00:57:00.335Z,1012.24
2019-03-25T00:58:00.328Z,1012.22
2019-03-25T00:59:00.317Z,1012.21
2019-03-25T01:00:00.404Z,1012.19
2019-03-25T01:01:00.299Z,1012.18
2019-03-25T01:02:00.589Z,1012.19
2019-03-25T01:03:00.282Z,1012.18
2019-03-25T01:04:00.271Z,1012.16
2019-03-25T01:05:00.357Z,1012.10
2019-03-25T01:06:00.255Z,1012.05
2019-03-25T01:07:00.245Z,1012.07
2019-03-25T01:08:00.240Z,1012.07
2019-03-25T01:09:00.226Z,1012.02
2019-03-25T01:10:00.347Z,1012.01
2019-03-25T01:11:00.210Z,1011.99
2019-03-25T01:12:00.202Z,1011.92
2019-03-25T01:13:00.193Z,1011.88
2019-03-25T01:14:00.188Z,1011.87
2019-03-25T01:15:00.385Z,1011.84
2019-03-25T01:16:00.168Z,1011.81
2019-03-25T01:17:00.163Z,1011.79
2019-03-25T01:18:00.151Z,1011.78
2019-03-25T01:19:00.145Z,1011.71
2019-03-25T01:20:00.356Z,1011.70
2019-03-25T01:21:00.154Z,1011.68
2019-03-25T01:22:00.118Z,1011.67
2019-03-25T01:23:00.109Z,1011.68
2019-03-25T01:24:00.099Z,1011.71
2019-03-25T01:25:01.986Z,1011.66
2019-03-25T01:26:00.080Z,1011.67
2019-03-25T01:27:00.073Z,1011.64
2019-03-25T01:28:00.065Z,1011.59
2019-03-25T01:29:00.054Z,1011.60
2019-03-25T01:30:00.115Z,1011.59
2019-03-25T01:31:00.042Z,1011.56
2019-03-25T01:32:00.079Z,1011.56
2019-03-25T01:33:00.018Z,1011.52
2019-03-25T01:34:00.018Z,1011.51
2019-03-25T01:35:00.010Z,1011.47
2019-03-25T01:35:59.993Z,1011.48
2019-03-25T01:36:59.988Z,1011.42
2019-03-25T01:38:00.077Z,1011.40
2019-03-25T01:38:59.968Z,1011.43
2019-03-25T01:39:59.970Z,1011.37
2019-03-25T01:40:59.950Z,1011.35
2019-03-25T01:41:59.943Z,1011.28
2019-03-25T01:42:59.937Z,1011.27
2019-03-25T01:43:59.928Z,1011.23
2019-03-25T01:44:59.919Z,1011.24
2019-03-25T01:45:59.909Z,1011.18
2019-03-25T01:46:59.901Z,1011.22
2019-03-25T01:47:59.885Z,1011.19
2019-03-25T01:48:59.880Z,1011.16
2019-03-25T01:49:59.872Z,1011.21
2019-03-25T01:50:59.864Z,1011.18
2019-03-25T01:51:59.856Z,1011.16
2019-03-25T01:52:59.845Z,1011.14
2019-03-25T01:53:59.837Z,1011.16
2019-03-25T01:54:59.827Z,1011.14
2019-03-25T01:55:59.818Z,1011.16
2019-03-25T01:56:59.812Z,1011.14
2019-03-25T01:57:59.800Z,1011.12
2019-03-25T01:58:59.789Z,1011.10
2019-03-25T01:59:59.790Z,1011.06
2019-03-25T02:00:59.776Z,1011.06
2019-03-25T02:01:59.775Z,1011.02
2019-03-25T02:02:59.764Z,1010.98
2019-03-25T02:03:59.751Z,1010.98
2019-03-25T02:04:59.911Z,1010.97
2019-03-25T02:05:59.732Z,1010.99
2019-03-25T02:06:59.719Z,1010.95
2019-03-25T02:08:00.107Z,1010.93
2019-03-25T02:08:59.718Z,1010.91
2019-03-25T02:09:59.695Z,1010.88
2019-03-25T02:10:59.685Z,1010.85
2019-03-25T02:11:59.678Z,1010.86
2019-03-25T02:12:59.709Z,1010.86
2019-03-25T02:13:59.682Z,1010.87
2019-03-25T02:14:59.652Z,1010.84
2019-03-25T02:15:59.665Z,1010.83
2019-03-25T02:17:00.100Z,1010.78
2019-03-25T02:17:59.636Z,1010.81
2019-03-25T02:18:59.926Z,1010.79
2019-03-25T02:19:59.607Z,1010.80
2019-03-25T02:20:59.601Z,1010.77
2019-03-25T02:21:59.600Z,1010.79
2019-03-25T02:22:59.742Z,1010.74
2019-03-25T02:23:59.571Z,1010.71
2019-03-25T02:24:59.578Z,1010.67
2019-03-25T02:26:00.086Z,1010.60
2019-03-25T02:26:59.556Z,1010.62
2019-03-25T02:27:59.568Z,1010.62
2019-03-25T02:28:59.560Z,1010.59
2019-03-25T02:29:59.517Z,1010.57
2019-03-25T02:30:59.512Z,1010.56
2019-03-25T02:31:59.508Z,1010.54
2019-03-25T02:32:59.581Z,1010.51
2019-03-25T02:33:59.485Z,1010.51
2019-03-25T02:34:59.475Z,1010.48
2019-03-25T02:35:59.465Z,1010.49
2019-03-25T02:36:59.455Z,1010.47
2019-03-25T02:37:59.447Z,1010.52
2019-03-25T02:38:59.438Z,1010.46
2019-03-25T02:39:59.445Z,1010.45
2019-03-25T02:40:59.415Z,1010.39
2019-03-25T02:41:59.414Z,1010.39
2019-03-25T02:42:59.411Z,1010.39
2019-03-25T02:43:59.393Z,1010.36
2019-03-25T02:44:59.384Z,1010.35
2019-03-25T02:45:59.376Z,1010.33
2019-03-25T02:46:59.369Z,1010.30
2019-03-25T02:47:59.449Z,1010.29
2019-03-25T02:48:59.345Z,1010.28
2019-03-25T02:49:59.340Z,1010.23
2019-03-25T02:50:59.333Z,1010.24
2019-03-25T02:51:59.331Z,1010.24
2019-03-25T02:52:59.315Z,1010.23
2019-03-25T02:53:59.298Z,1010.21
2019-03-25T02:54:59.293Z,1010.20
2019-03-25T02:55:59.582Z,1010.16
2019-03-25T02:56:59.272Z,1010.13
2019-03-25T02:57:59.276Z,1010.08
2019-03-25T02:58:59.258Z,1010.07
2019-03-25T02:59:59.247Z,1010.06
2019-03-25T03:00:59.240Z,1010.01
2019-03-25T03:01:59.229Z,1010.04
2019-03-25T03:02:59.419Z,1010.02
2019-03-25T03:03:59.289Z,1010.02
2019-03-25T03:04:59.204Z,1009.97
2019-03-25T03:05:59.192Z,1010.00
2019-03-25T03:06:59.185Z,1009.95
2019-03-25T03:07:59.177Z,1009.98
2019-03-25T03:08:59.165Z,1009.93
2019-03-25T03:09:59.166Z,1009.92
2019-03-25T03:10:59.146Z,1009.86
2019-03-25T03:11:59.141Z,1009.85
2019-03-25T03:12:59.131Z,1009.84
2019-03-25T03:13:59.122Z,1009.80
2019-03-25T03:14:59.112Z,1009.77
2019-03-25T03:15:59.102Z,1009.71
2019-03-25T03:16:59.092Z,1009.68
2019-03-25T03:17:59.087Z,1009.68
2019-03-25T03:18:59.076Z,1009.67
2019-03-25T03:19:59.068Z,1009.68
2019-03-25T03:20:59.057Z,1009.63
2019-03-25T03:21:59.046Z,1009.60
2019-03-25T03:22:59.040Z,1009.58
2019-03-25T03:23:59.030Z,1009.53
2019-03-25T03:24:59.028Z,1009.51
2019-03-25T03:25:59.012Z,1009.51
2019-03-25T03:26:59.004Z,1009.48
2019-03-25T03:27:58.992Z,1009.48
2019-03-25T03:28:58.981Z,1009.46
2019-03-25T03:29:59.005Z,1009.41
2019-03-25T03:30:58.966Z,1009.40
2019-03-25T03:31:58.954Z,1009.38
2019-03-25T03:32:58.946Z,1009.38
2019-03-25T03:33:58.937Z,1009.27
2019-03-25T03:34:58.946Z,1009.29
2019-03-25T03:35:58.915Z,1009.29
2019-03-25T03:36:58.909Z,1009.34
2019-03-25T03:37:58.899Z,1009.30
2019-03-25T03:38:58.890Z,1009.30
2019-03-25T03:39:58.882Z,1009.25
2019-03-25T03:40:58.867Z,1009.23
2019-03-25T03:41:59.068Z,1009.22
2019-03-25T03:42:58.856Z,1009.17
2019-03-25T03:44:00.680Z,1009.18
2019-03-25T03:44:58.835Z,1009.15
2019-03-25T03:45:58.828Z,1009.15
2019-03-25T03:46:58.821Z,1009.13
2019-03-25T03:47:58.809Z,1009.16
2019-03-25T03:48:58.796Z,1009.12
2019-03-25T03:49:58.808Z,1009.13
2019-03-25T03:50:58.809Z,1009.15
2019-03-25T03:51:58.775Z,1009.20
2019-03-25T03:52:58.778Z,1009.16
2019-03-25T03:53:58.753Z,1009.17
2019-03-25T03:54:58.742Z,1009.19
2019-03-25T03:56:11.868Z,1009.13
2019-03-25T03:56:58.723Z,1009.16
2019-03-25T03:57:58.713Z,1009.13
2019-03-25T03:58:58.705Z,1009.09
2019-03-25T03:59:58.698Z,1009.08
2019-03-25T04:00:58.687Z,1009.07
2019-03-25T04:01:58.697Z,1009.04
2019-03-25T04:02:58.669Z,1008.99
2019-03-25T04:03:58.660Z,1008.96
2019-03-25T04:04:58.647Z,1008.91
2019-03-25T04:05:58.638Z,1008.88
2019-03-25T04:06:58.628Z,1008.85
2019-03-25T04:07:58.616Z,1008.78
2019-03-25T04:08:58.612Z,1008.81
2019-03-25T04:09:58.594Z,1008.76
2019-03-25T04:10:58.596Z,1008.78
2019-03-25T04:11:58.583Z,1008.77
2019-03-25T04:12:58.573Z,1008.76
2019-03-25T04:13:58.562Z,1008.74
2019-03-25T04:14:58.569Z,1008.71
2019-03-25T04:16:01.276Z,1008.69
2019-03-25T04:16:58.537Z,1008.65
2019-03-25T04:17:58.527Z,1008.63
2019-03-25T04:18:58.517Z,1008.57
2019-03-25T04:19:58.510Z,1008.55
2019-03-25T04:20:58.496Z,1008.57
2019-03-25T04:21:58.581Z,1008.54
2019-03-25T04:22:58.480Z,1008.57
2019-03-25T04:23:58.469Z,1008.54
2019-03-25T04:24:58.456Z,1008.50
2019-03-25T04:25:58.569Z,1008.46
2019-03-25T04:26:58.440Z,1008.41
2019-03-25T04:27:58.431Z,1008.41
2019-03-25T04:28:58.428Z,1008.42
2019-03-25T04:29:58.412Z,1008.35
2019-03-25T04:30:58.408Z,1008.34
2019-03-25T04:31:58.396Z,1008.38
2019-03-25T04:32:58.421Z,1008.34
2019-03-25T04:33:58.379Z,1008.33
2019-03-25T04:34:58.371Z,1008.29
2019-03-25T04:35:58.365Z,1008.26
2019-03-25T04:36:58.350Z,1008.31
2019-03-25T04:37:58.346Z,1008.22
2019-03-25T04:38:58.336Z,1008.22
2019-03-25T04:39:58.321Z,1008.23
2019-03-25T04:40:58.315Z,1008.16
2019-03-25T04:41:58.305Z,1008.24
2019-03-25T04:42:58.292Z,1008.18
2019-03-25T04:43:58.287Z,1008.23
2019-03-25T04:44:58.289Z,1008.16
2019-03-25T04:45:58.281Z,1008.12
2019-03-25T04:46:58.258Z,1008.15
2019-03-25T04:47:58.245Z,1008.12
2019-03-25T04:48:58.582Z,1008.12
2019-03-25T04:49:58.228Z,1008.08
2019-03-25T04:50:58.226Z,1008.08
2019-03-25T04:51:58.212Z,1008.06
2019-03-25T04:52:58.201Z,1008.07
2019-03-25T04:53:58.189Z,1008.04
2019-03-25T04:54:58.185Z,1008.01
2019-03-25T04:55:58.172Z,1008.01
2019-03-25T04:56:58.157Z,1008.02
2019-03-25T04:57:58.154Z,1007.98
2019-03-25T04:58:58.145Z,1007.95
2019-03-25T04:59:58.135Z,1007.94
2019-03-25T05:00:58.129Z,1007.96
2019-03-25T05:01:58.117Z,1008.00
2019-03-25T05:02:58.111Z,1007.98
2019-03-25T05:03:58.099Z,1007.93
2019-03-25T05:04:58.090Z,1007.97
2019-03-25T05:05:58.074Z,1007.89
2019-03-25T05:06:58.067Z,1007.86
2019-03-25T05:07:58.075Z,1007.86
2019-03-25T05:08:58.072Z,1007.90
2019-03-25T05:09:58.043Z,1007.86
2019-03-25T05:10:58.031Z,1007.86
2019-03-25T05:11:58.030Z,1007.84
2019-03-25T05:12:58.019Z,1007.80
2019-03-25T05:13:58.004Z,1007.87
2019-03-25T05:14:57.997Z,1007.82
2019-03-25T05:15:57.990Z,1007.83
2019-03-25T05:16:57.978Z,1007.82
2019-03-25T05:17:57.967Z,1007.84
2019-03-25T05:18:57.962Z,1007.77
2019-03-25T05:19:57.950Z,1007.75
2019-03-25T05:20:57.941Z,1007.78
2019-03-25T05:21:57.937Z,1007.74
2019-03-25T05:22:57.918Z,1007.75
2019-03-25T05:23:57.915Z,1007.72
2019-03-25T05:24:57.907Z,1007.72
2019-03-25T05:25:57.895Z,1007.74
2019-03-25T05:26:57.884Z,1007.68
2019-03-25T05:27:57.877Z,1007.64
2019-03-25T05:28:57.868Z,1007.64
2019-03-25T05:29:57.858Z,1007.64
2019-03-25T05:30:57.856Z,1007.64
2019-03-25T05:31:57.838Z,1007.62
2019-03-25T05:32:57.833Z,1007.64
2019-03-25T05:33:57.820Z,1007.60
2019-03-25T05:34:57.814Z,1007.61
2019-03-25T05:35:57.803Z,1007.63
2019-03-25T05:36:57.794Z,1007.60
2019-03-25T05:37:57.786Z,1007.62
2019-03-25T05:38:57.780Z,1007.62
2019-03-25T05:39:57.767Z,1007.67
2019-03-25T05:40:57.759Z,1007.66
2019-03-25T05:41:57.752Z,1007.66
2019-03-25T05:42:57.741Z,1007.71
2019-03-25T05:43:57.731Z,1007.71
2019-03-25T05:44:57.722Z,1007.73
2019-03-25T05:45:57.715Z,1007.76
2019-03-25T05:46:57.706Z,1007.77
2019-03-25T05:47:57.698Z,1007.72
2019-03-25T05:48:57.687Z,1007.69
2019-03-25T05:49:57.675Z,1007.71
2019-03-25T05:50:57.663Z,1007.78
2019-03-25T05:51:57.665Z,1007.69
2019-03-25T05:52:57.653Z,1007.72
2019-03-25T05:53:57.640Z,1007.74
2019-03-25T05:54:57.631Z,1007.73
2019-03-25T05:55:57.621Z,1007.68
2019-03-25T05:57:02.525Z,1007.66
2019-03-25T05:57:57.605Z,1007.70
2019-03-25T05:58:57.594Z,1007.66
2019-03-25T05:59:57.584Z,1007.62
2019-03-25T06:00:57.573Z,1007.64
2019-03-25T06:01:57.563Z,1007.61
2019-03-25T06:02:57.578Z,1007.59
2019-03-25T06:03:57.547Z,1007.55
2019-03-25T06:04:57.538Z,1007.55
2019-03-25T06:05:57.532Z,1007.57
2019-03-25T06:06:57.523Z,1007.55
2019-03-25T06:07:57.526Z,1007.57
2019-03-25T06:08:57.514Z,1007.54
2019-03-25T06:09:57.495Z,1007.52
2019-03-25T06:10:57.480Z,1007.51
2019-03-25T06:11:57.475Z,1007.49
2019-03-25T06:12:57.460Z,1007.42
2019-03-25T06:13:57.451Z,1007.47
2019-03-25T06:14:57.441Z,1007.48
2019-03-25T06:15:57.430Z,1007.50
2019-03-25T06:16:57.422Z,1007.47
2019-03-25T06:17:57.417Z,1007.47
2019-03-25T06:18:57.404Z,1007.43
2019-03-25T06:19:57.398Z,1007.40
2019-03-25T06:20:57.386Z,1007.41
2019-03-25T06:21:57.376Z,1007.40
2019-03-25T06:22:57.365Z,1007.43
2019-03-25T06:23:57.357Z,1007.46
2019-03-25T06:24:57.346Z,1007.51
2019-03-25T06:25:57.568Z,1007.45
2019-03-25T06:26:57.327Z,1007.47
2019-03-25T06:27:57.318Z,1007.51
2019-03-25T06:28:57.309Z,1007.50
2019-03-25T06:29:57.299Z,1007.48
2019-03-25T06:30:57.291Z,1007.52
2019-03-25T06:31:57.288Z,1007.52
2019-03-25T06:32:57.272Z,1007.49
2019-03-25T06:33:57.262Z,1007.50
2019-03-25T06:34:57.253Z,1007.50
2019-03-25T06:35:57.244Z,1007.48
2019-03-25T06:36:57.230Z,1007.55
2019-03-25T06:37:57.223Z,1007.47
2019-03-25T06:38:57.214Z,1007.46
2019-03-25T06:39:57.201Z,1007.48
2019-03-25T06:40:57.193Z,1007.51
2019-03-25T06:41:57.183Z,1007.53
2019-03-25T06:42:57.176Z,1007.52
2019-03-25T06:43:57.169Z,1007.54
2019-03-25T06:44:57.153Z,1007.53
2019-03-25T06:45:57.151Z,1007.57
2019-03-25T06:46:57.141Z,1007.56
2019-03-25T06:47:57.122Z,1007.60
2019-03-25T06:48:57.115Z,1007.55
2019-03-25T06:49:57.103Z,1007.58
2019-03-25T06:50:57.096Z,1007.57
2019-03-25T06:51:57.085Z,1007.61
2019-03-25T06:52:57.075Z,1007.56
2019-03-25T06:53:57.067Z,1007.60
2019-03-25T06:54:57.055Z,1007.57
2019-03-25T06:55:57.047Z,1007.62
2019-03-25T06:56:57.036Z,1007.64
2019-03-25T06:57:57.030Z,1007.61
2019-03-25T06:58:57.061Z,1007.63
2019-03-25T06:59:57.009Z,1007.62
2019-03-25T07:00:56.999Z,1007.62
2019-03-25T07:01:56.991Z,1007.62
2019-03-25T07:02:56.978Z,1007.60
2019-03-25T07:03:56.970Z,1007.63
2019-03-25T07:04:56.958Z,1007.64
2019-03-25T07:05:56.950Z,1007.63
2019-03-25T07:06:56.939Z,1007.61
2019-03-25T07:07:56.930Z,1007.62
2019-03-25T07:08:56.929Z,1007.60
2019-03-25T07:09:56.912Z,1007.59
2019-03-25T07:10:56.902Z,1007.60
2019-03-25T07:11:56.892Z,1007.64
2019-03-25T07:12:56.906Z,1007.59
2019-03-25T07:13:56.874Z,1007.66
2019-03-25T07:14:56.867Z,1007.65
2019-03-25T07:15:56.855Z,1007.62
2019-03-25T07:16:56.844Z,1007.69
2019-03-25T07:17:56.834Z,1007.71
2019-03-25T07:18:56.823Z,1007.73
2019-03-25T07:19:56.813Z,1007.69
2019-03-25T07:20:56.804Z,1007.68
2019-03-25T07:21:56.794Z,1007.72
2019-03-25T07:22:56.786Z,1007.71
2019-03-25T07:23:56.775Z,1007.68
2019-03-25T07:24:56.768Z,1007.69
2019-03-25T07:25:56.762Z,1007.73
2019-03-25T07:26:56.745Z,1007.69
2019-03-25T07:27:56.734Z,1007.70
2019-03-25T07:28:56.731Z,1007.72
2019-03-25T07:29:56.718Z,1007.71
2019-03-25T07:30:56.712Z,1007.77
2019-03-25T07:31:56.699Z,1007.75
2019-03-25T07:32:56.693Z,1007.72
2019-03-25T07:33:56.677Z,1007.80
2019-03-25T07:34:56.669Z,1007.75
2019-03-25T07:35:56.658Z,1007.75
2019-03-25T07:36:56.648Z,1007.79
2019-03-25T07:37:56.641Z,1007.79
2019-03-25T07:38:56.633Z,1007.77
2019-03-25T07:39:56.622Z,1007.77
2019-03-25T07:40:56.614Z,1007.74
2019-03-25T07:41:56.603Z,1007.73
2019-03-25T07:42:56.592Z,1007.77
2019-03-25T07:43:56.588Z,1007.79
2019-03-25T07:44:56.577Z,1007.78
2019-03-25T07:45:56.564Z,1007.79
2019-03-25T07:46:56.556Z,1007.81
2019-03-25T07:47:56.545Z,1007.77
2019-03-25T07:48:56.537Z,1007.72
2019-03-25T07:49:56.526Z,1007.73
2019-03-25T07:50:56.517Z,1007.71
2019-03-25T07:51:56.507Z,1007.78
2019-03-25T07:52:56.501Z,1007.80
2019-03-25T07:53:56.489Z,1007.85
2019-03-25T07:54:56.482Z,1007.78
2019-03-25T07:55:56.467Z,1007.83
2019-03-25T07:56:56.470Z,1007.84
2019-03-25T07:57:56.451Z,1007.84
2019-03-25T07:58:56.452Z,1007.87
2019-03-25T07:59:56.441Z,1007.93
2019-03-25T08:00:56.437Z,1007.90
2019-03-25T08:01:56.443Z,1007.90
2019-03-25T08:02:56.403Z,1007.93
2019-03-25T08:03:56.397Z,1007.95
2019-03-25T08:04:56.418Z,1007.92
2019-03-25T08:05:56.385Z,1007.91
2019-03-25T08:06:56.365Z,1007.92
2019-03-25T08:07:56.367Z,1007.91
2019-03-25T08:09:03.814Z,1007.95
2019-03-25T08:09:56.340Z,1007.92
2019-03-25T08:10:56.367Z,1007.98
2019-03-25T08:11:56.322Z,1007.94
2019-03-25T08:12:56.354Z,1007.98
2019-03-25T08:13:56.321Z,1007.93
2019-03-25T08:14:56.293Z,1008.01
2019-03-25T08:15:56.314Z,1007.94
2019-03-25T08:16:56.274Z,1007.92
2019-03-25T08:17:56.267Z,1007.94
2019-03-25T08:18:56.258Z,1007.91
2019-03-25T08:19:56.245Z,1007.95
2019-03-25T08:20:56.238Z,1007.94
2019-03-25T08:21:56.229Z,1007.96
2019-03-25T08:22:56.223Z,1007.98
2019-03-25T08:23:56.209Z,1007.93
2019-03-25T08:24:56.206Z,1007.96
2019-03-25T08:25:56.497Z,1007.99
2019-03-25T08:26:56.186Z,1007.92
2019-03-25T08:28:00.222Z,1007.94
2019-03-25T08:28:56.167Z,1007.89
2019-03-25T08:29:56.155Z,1007.95
2019-03-25T08:30:56.149Z,1007.97
2019-03-25T08:31:58.843Z,1008.01
2019-03-25T08:32:56.137Z,1007.98
2019-03-25T08:33:56.124Z,1008.03
2019-03-25T08:34:56.116Z,1008.02
2019-03-25T08:35:56.103Z,1008.02
2019-03-25T08:36:56.097Z,1008.04
2019-03-25T08:37:56.084Z,1008.03
2019-03-25T08:38:56.077Z,1008.06
2019-03-25T08:39:56.067Z,1008.09
2019-03-25T08:40:56.359Z,1008.04
2019-03-25T08:41:56.050Z,1008.09
2019-03-25T08:42:56.042Z,1008.14
2019-03-25T08:43:56.031Z,1008.10
2019-03-25T08:44:56.025Z,1008.11
2019-03-25T08:45:56.017Z,1008.12
2019-03-25T08:46:56.005Z,1008.13
2019-03-25T08:47:55.996Z,1008.11
2019-03-25T08:48:55.992Z,1008.12
2019-03-25T08:49:55.979Z,1008.11
2019-03-25T08:50:55.970Z,1008.23
2019-03-25T08:51:55.966Z,1008.17
2019-03-25T08:52:55.962Z,1008.19
2019-03-25T08:53:55.946Z,1008.17
2019-03-25T08:54:56.518Z,1008.21
2019-03-25T08:55:55.928Z,1008.24
2019-03-25T08:56:55.918Z,1008.30
2019-03-25T08:57:55.913Z,1008.28
2019-03-25T08:58:55.899Z,1008.33
2019-03-25T08:59:57.662Z,1008.32
2019-03-25T09:00:56.179Z,1008.35
2019-03-25T09:01:55.934Z,1008.28
2019-03-25T09:02:55.866Z,1008.34
2019-03-25T09:03:55.857Z,1008.32
2019-03-25T09:04:55.847Z,1008.36
2019-03-25T09:05:55.838Z,1008.38
2019-03-25T09:06:55.836Z,1008.38
2019-03-25T09:07:55.821Z,1008.34
2019-03-25T09:08:55.815Z,1008.39
2019-03-25T09:09:55.804Z,1008.40
2019-03-25T09:10:55.795Z,1008.37
2019-03-25T09:11:55.785Z,1008.45
2019-03-25T09:12:55.777Z,1008.43
2019-03-25T09:13:55.769Z,1008.46
2019-03-25T09:14:55.766Z,1008.45
2019-03-25T09:15:55.749Z,1008.48
2019-03-25T09:16:56.606Z,1008.51
2019-03-25T09:17:55.941Z,1008.47
2019-03-25T09:18:55.725Z,1008.48
2019-03-25T09:19:55.715Z,1008.50
2019-03-25T09:20:55.713Z,1008.52
2019-03-25T09:21:55.700Z,1008.44
2019-03-25T09:22:55.690Z,1008.46
2019-03-25T09:23:55.680Z,1008.46
2019-03-25T09:24:55.672Z,1008.51
2019-03-25T09:25:55.665Z,1008.50
2019-03-25T09:26:55.657Z,1008.53
2019-03-25T09:27:55.684Z,1008.51
2019-03-25T09:28:55.652Z,1008.55
2019-03-25T09:29:55.629Z,1008.57
2019-03-25T09:30:55.621Z,1008.61
2019-03-25T09:31:55.611Z,1008.61
2019-03-25T09:32:55.604Z,1008.66
2019-03-25T09:33:55.596Z,1008.66
2019-03-25T09:34:55.586Z,1008.69
2019-03-25T09:35:55.620Z,1008.68
2019-03-25T09:36:55.569Z,1008.72
2019-03-25T09:37:55.563Z,1008.68
2019-03-25T09:38:55.553Z,1008.63
2019-03-25T09:39:55.550Z,1008.67
2019-03-25T09:40:55.535Z,1008.63
2019-03-25T09:41:55.527Z,1008.63
2019-03-25T09:42:55.519Z,1008.68
2019-03-25T09:43:55.511Z,1008.69
2019-03-25T09:44:55.505Z,1008.66
2019-03-25T09:45:55.493Z,1008.70
2019-03-25T09:46:55.486Z,1008.75
2019-03-25T09:47:55.478Z,1008.72
2019-03-25T09:48:55.468Z,1008.74
2019-03-25T09:49:55.489Z,1008.70
2019-03-25T09:50:55.453Z,1008.67
2019-03-25T09:51:55.444Z,1008.70
2019-03-25T09:52:55.435Z,1008.69
2019-03-25T09:53:55.430Z,1008.74
2019-03-25T09:54:55.418Z,1008.67
2019-03-25T09:55:55.410Z,1008.74
2019-03-25T09:56:55.405Z,1008.71
2019-03-25T09:57:55.393Z,1008.75
2019-03-25T09:58:55.384Z,1008.76
2019-03-25T09:59:55.376Z,1008.75
2019-03-25T10:00:55.367Z,1008.75
2019-03-25T10:01:55.361Z,1008.79
2019-03-25T10:02:55.353Z,1008.83
2019-03-25T10:03:55.340Z,1008.75
2019-03-25T10:04:55.332Z,1008.79
2019-03-25T10:05:55.328Z,1008.79
2019-03-25T10:06:55.315Z,1008.80
2019-03-25T10:07:55.313Z,1008.79
2019-03-25T10:08:55.298Z,1008.77
2019-03-25T10:09:55.290Z,1008.73
2019-03-25T10:10:55.283Z,1008.81
2019-03-25T10:11:55.273Z,1008.78
2019-03-25T10:12:56.841Z,1008.72
2019-03-25T10:13:55.259Z,1008.75
2019-03-25T10:14:55.250Z,1008.83
2019-03-25T10:15:55.242Z,1008.85
2019-03-25T10:16:55.234Z,1008.77
2019-03-25T10:17:55.229Z,1008.85
2019-03-25T10:18:55.218Z,1008.92
2019-03-25T10:19:55.209Z,1008.89
2019-03-25T10:20:55.205Z,1008.85
2019-03-25T10:21:55.193Z,1008.88
2019-03-25T10:22:55.187Z,1008.88
2019-03-25T10:23:55.338Z,1008.95
2019-03-25T10:24:55.171Z,1008.99
2019-03-25T10:25:55.161Z,1009.00
2019-03-25T10:26:55.152Z,1008.97
2019-03-25T10:27:55.143Z,1008.95
2019-03-25T10:28:55.136Z,1008.95
2019-03-25T10:29:55.128Z,1008.95
2019-03-25T10:30:55.122Z,1008.99
2019-03-25T10:31:55.110Z,1008.97
2019-03-25T10:32:55.107Z,1009.08
2019-03-25T10:33:55.094Z,1009.12
2019-03-25T10:34:55.088Z,1009.06
2019-03-25T10:35:55.076Z,1009.06
2019-03-25T10:36:55.073Z,1009.03
2019-03-25T10:37:55.064Z,1009.02
2019-03-25T10:38:55.054Z,1009.03
2019-03-25T10:39:55.048Z,1009.03
2019-03-25T10:40:55.040Z,1009.04
2019-03-25T10:41:55.033Z,1009.00
2019-03-25T10:42:55.025Z,1009.05
2019-03-25T10:43:55.015Z,1009.02
2019-03-25T10:44:55.009Z,1008.92
2019-03-25T10:45:55.004Z,1009.02
2019-03-25T10:46:54.994Z,1009.04
2019-03-25T10:47:54.986Z,1009.04
2019-03-25T10:48:54.978Z,1009.05
2019-03-25T10:49:54.970Z,1009.09
2019-03-25T10:50:54.965Z,1009.06
2019-03-25T10:51:54.959Z,1009.07
2019-03-25T10:52:54.951Z,1009.09
2019-03-25T10:53:54.944Z,1009.07
2019-03-25T10:55:54.932Z,1009.08
2019-03-25T10:56:54.920Z,1008.99
2019-03-25T10:57:54.917Z,1008.97
2019-03-25T10:58:58.206Z,1009.07
2019-03-25T10:59:54.899Z,1009.02
2019-03-25T11:00:54.894Z,1008.98
2019-03-25T11:01:54.886Z,1009.06
2019-03-25T11:02:54.878Z,1009.01
2019-03-25T11:03:54.875Z,1009.08
2019-03-25T11:04:54.864Z,1008.97
2019-03-25T11:05:54.856Z,1009.05
2019-03-25T11:06:54.853Z,1009.02
2019-03-25T11:07:54.850Z,1009.02
2019-03-25T11:08:54.839Z,1008.98
2019-03-25T11:09:54.828Z,1008.99
2019-03-25T11:10:54.824Z,1008.93
2019-03-25T11:11:54.815Z,1008.98
2019-03-25T11:12:54.807Z,1009.03
2019-03-25T11:13:54.801Z,1008.93
2019-03-25T11:14:54.797Z,1008.95
2019-03-25T11:15:54.788Z,1008.98
2019-03-25T11:16:54.780Z,1008.98
2019-03-25T11:17:54.774Z,1008.98
2019-03-25T11:18:54.767Z,1008.90
2019-03-25T11:19:54.761Z,1008.96
2019-03-25T11:20:54.751Z,1009.07
2019-03-25T11:21:54.745Z,1009.02
2019-03-25T11:22:54.747Z,1009.02
2019-03-25T11:23:54.730Z,1009.04
2019-03-25T11:24:54.726Z,1009.00
2019-03-25T11:25:54.720Z,1009.00
2019-03-25T11:26:54.711Z,1009.01
2019-03-25T11:27:54.839Z,1009.00
2019-03-25T11:28:54.695Z,1009.02
2019-03-25T11:29:54.689Z,1009.02
2019-03-25T11:30:54.681Z,1009.04
2019-03-25T11:31:54.674Z,1009.02
2019-03-25T11:32:54.664Z,1008.98
2019-03-25T11:33:54.662Z,1008.97
2019-03-25T11:34:54.652Z,1008.98
2019-03-25T11:35:54.642Z,1009.01
2019-03-25T11:36:54.643Z,1009.03
2019-03-25T11:37:54.628Z,1009.00
2019-03-25T11:38:54.622Z,1008.99
2019-03-25T11:39:54.614Z,1008.94
2019-03-25T11:40:54.607Z,1008.96
2019-03-25T11:41:54.600Z,1008.94
2019-03-25T11:42:54.593Z,1008.93
2019-03-25T11:43:54.584Z,1008.93
2019-03-25T11:44:54.576Z,1008.94
2019-03-25T11:45:54.569Z,1008.89
2019-03-25T11:46:54.562Z,1008.86
2019-03-25T11:47:54.550Z,1008.89
2019-03-25T11:48:54.546Z,1008.89
2019-03-25T11:49:54.539Z,1008.82
2019-03-25T11:50:54.531Z,1008.85
2019-03-25T11:51:54.523Z,1008.89
2019-03-25T11:52:54.517Z,1008.92
2019-03-25T11:53:54.508Z,1008.90
2019-03-25T11:54:54.502Z,1008.92
2019-03-25T11:55:54.495Z,1008.90
2019-03-25T11:56:54.487Z,1008.90
2019-03-25T11:57:54.482Z,1008.85
2019-03-25T11:58:54.471Z,1008.87
2019-03-25T11:59:54.465Z,1008.86
2019-03-25T12:00:54.458Z,1008.83
2019-03-25T12:01:54.448Z,1008.81
2019-03-25T12:02:54.444Z,1008.76
2019-03-25T12:03:54.432Z,1008.75
2019-03-25T12:04:54.426Z,1008.78
2019-03-25T12:05:54.418Z,1008.80